Time;durP1;ratioP1;P1;durP2;ratioP2;P2;SDS_P1;SDS_P2;PMS_P1;PMS_P2;Temp;Humidity;BMP_temperature;BMP_pressure;BME280_temperature;BME280_humidity;BME280_pressure;Samples;Min_cycle;Max_cycle;Signal;HPM_P1;HPM_P2
2022/12/27 00:01:41;;;;;;;6.30;1.60;;;;;;;-2.42;100.00;101112.59;4871240;28;20152;-61
2022/12/27 00:04:37;;;;;;;5.47;1.40;;;;;;;-2.40;100.00;101111.91;4860605;28;20053;-61
2022/12/27 00:07:31;;;;;;;2.55;1.40;;;;;;;-2.37;100.00;101111.19;4843220;28;20050;-62
2022/12/27 00:14:20;;;;;;;4.28;1.60;;;;;;;-2.31;100.00;101111.47;4882312;28;20104;-61
2022/12/27 00:17:24;;;;;;;4.45;1.58;;;;;;;-2.32;100.00;101086.69;4873539;28;20046;-62
2022/12/27 00:20:17;;;;;;;4.95;1.63;;;;;;;-2.26;100.00;101094.66;4878702;28;20046;-61
2022/12/27 00:23:03;;;;;;;6.88;1.75;;;;;;;-2.57;100.00;101058.13;4891060;28;20046;-59
2022/12/27 00:25:47;;;;;;;9.43;1.50;;;;;;;-2.17;100.00;101115.59;4857805;28;20077;-62
2022/12/27 00:28:52;;;;;;;3.92;1.67;;;;;;;-2.10;100.00;101115.88;4860648;28;20061;-61
2022/12/27 00:31:38;;;;;;;5.07;1.67;;;;;;;-2.04;100.00;101116.19;4831872;28;20065;-62
2022/12/27 00:34:20;;;;;;;4.93;1.52;;;;;;;-2.09;100.00;101122.75;4865176;28;20164;-61
2022/12/27 00:37:13;;;;;;;4.70;1.48;;;;;;;-2.27;100.00;101103.16;4838658;28;20105;-62
2022/12/27 00:39:51;;;;;;;6.63;1.85;;;;;;;-2.11;100.00;101129.50;4859652;28;20048;-63
2022/12/27 00:42:52;;;;;;;4.07;1.35;;;;;;;-2.07;100.00;101121.13;4840984;28;20045;-62
2022/12/27 00:45:29;;;;;;;3.60;1.27;;;;;;;-2.13;99.64;101123.41;4898535;28;20050;-61
2022/12/27 00:48:17;;;;;;;2.92;1.80;;;;;;;-2.19;99.87;101112.06;4900912;28;20065;-61
2022/12/27 00:51:22;;;;;;;4.32;1.30;;;;;;;-2.10;100.00;101114.19;4864003;28;20327;-62
2022/12/27 00:54:15;;;;;;;3.45;1.55;;;;;;;-2.11;99.91;101103.88;4895791;28;20430;-62
2022/12/27 00:56:53;;;;;;;4.22;1.45;;;;;;;-2.07;99.44;101116.00;4889847;28;20463;-61
2022/12/27 00:59:45;;;;;;;5.15;1.23;;;;;;;-2.02;99.10;101120.56;4900164;28;20057;-63
2022/12/27 01:02:45;;;;;;;1.65;1.30;;;;;;;-2.02;98.83;101114.53;4899957;28;20112;-65
2022/12/27 01:05:37;;;;;;;3.00;1.20;;;;;;;-2.07;98.36;101116.00;4830167;28;20084;-63
2022/12/27 01:08:26;;;;;;;3.47;1.40;;;;;;;-2.26;98.22;101104.88;4878281;28;20352;-62
2022/12/27 01:14:08;;;;;;;3.00;1.05;;;;;;;-2.23;98.15;101094.78;4847787;28;20307;-62
2022/12/27 01:17:01;;;;;;;3.00;1.17;;;;;;;-2.07;98.17;101105.75;4874144;28;20045;-62
2022/12/27 01:19:48;;;;;;;3.38;1.48;;;;;;;-2.11;98.23;101088.53;4872176;28;20042;-61
2022/12/27 01:22:55;;;;;;;5.50;1.50;;;;;;;-2.00;98.58;101097.56;4881059;28;20259;-62
2022/12/27 01:25:45;;;;;;;4.28;1.50;;;;;;;-2.00;98.19;101100.13;4853960;28;20069;-59
2022/12/27 01:28:41;;;;;;;2.78;1.50;;;;;;;-2.01;97.33;101096.72;4884877;28;20054;-60
2022/12/27 01:31:36;;;;;;;3.00;1.70;;;;;;;-2.06;97.35;101094.75;4824392;28;20482;-62
2022/12/27 01:34:20;;;;;;;6.40;1.90;;;;;;;-2.05;97.67;101089.66;4872280;28;20091;-61
2022/12/27 01:37:07;;;;;;;4.18;2.05;;;;;;;-2.04;97.63;101085.44;4850071;28;20064;-62
2022/12/27 01:40:10;;;;;;;7.35;2.83;;;;;;;-2.12;97.52;101086.75;4859403;28;20081;-62
2022/12/27 01:43:39;;;;;;;3.33;1.83;;;;;;;-2.11;96.67;101070.59;4828077;28;20307;-61
2022/12/27 01:46:32;;;;;;;7.70;2.50;;;;;;;-2.17;96.19;101028.53;4849515;28;20127;-61
2022/12/27 01:49:24;;;;;;;6.60;2.28;;;;;;;-1.40;96.26;101087.53;4764514;28;20087;-61
2022/12/27 01:52:16;;;;;;;3.45;1.92;;;;;;;-1.21;94.78;101074.72;4844772;28;20183;-62
2022/12/27 01:54:59;;;;;;;3.90;2.05;;;;;;;-0.80;93.85;101078.22;4823391;28;20046;-60
2022/12/27 01:57:42;;;;;;;4.03;1.65;;;;;;;-0.73;92.05;101080.22;4851089;28;20118;-62
2022/12/27 02:00:34;;;;;;;3.58;1.60;;;;;;;-0.83;91.99;101077.22;4881005;28;20477;-62
2022/12/27 02:03:37;;;;;;;3.83;1.70;;;;;;;-1.32;92.57;101061.44;4826183;28;20050;-64
2022/12/27 02:06:15;;;;;;;8.25;2.03;;;;;;;-1.35;92.83;101045.94;4855591;28;20050;-63
2022/12/27 02:09:15;;;;;;;5.30;2.45;;;;;;;-1.19;92.38;101067.13;4838563;28;20048;-64
2022/12/27 02:11:57;;;;;;;9.68;3.55;;;;;;;-0.90;92.71;101082.09;4837446;28;20052;-63
2022/12/27 02:14:50;;;;;;;6.65;2.72;;;;;;;-0.91;92.22;101075.19;4830904;28;20819;-62
2022/12/27 02:17:41;;;;;;;4.45;2.15;;;;;;;-0.96;91.47;101074.13;4846574;28;20494;-62
2022/12/27 02:20:21;;;;;;;3.33;1.90;;;;;;;-0.97;91.47;101068.94;4812977;28;20070;-63
2022/12/27 02:27:23;;;;;;;4.75;1.80;;;;;;;-1.05;91.86;101071.13;4863245;28;20042;-62
2022/12/27 02:30:28;;;;;;;3.38;1.70;;;;;;;-1.01;91.92;101067.91;4839578;28;20089;-63
2022/12/27 02:33:16;;;;;;;5.40;1.58;;;;;;;-0.82;91.15;101074.72;4858992;28;20095;-62
2022/12/27 02:39:00;;;;;;;6.53;1.88;;;;;;;-0.88;90.38;101039.38;4851155;28;20881;-63
2022/12/27 02:54:04;;;;;;;3.15;1.48;;;;;;;-0.87;89.72;101071.94;4856662;28;20043;-61
2022/12/27 02:57:16;;;;;;;3.03;1.60;;;;;;;-0.84;89.58;101065.19;4836632;28;20227;-64
2022/12/27 03:04:03;;;;;;;2.80;1.60;;;;;;;-1.11;89.86;101065.75;4836437;28;20110;-61
2022/12/27 03:07:06;;;;;;;3.25;1.88;;;;;;;-1.12;90.36;101069.16;4861401;28;20050;-61
2022/12/27 03:25:56;;;;;;;4.28;1.92;;;;;;;-0.80;88.83;101056.81;4840816;28;20079;-63
2022/12/27 03:35:09;;;;;;;4.50;2.13;;;;;;;-1.13;90.46;101052.00;4806801;28;20055;-63
2022/12/27 03:38:08;;;;;;;4.20;1.80;;;;;;;-1.09;90.54;101053.88;4820379;28;20054;-63
2022/12/27 03:43:47;;;;;;;2.97;1.70;;;;;;;-0.91;90.39;101058.91;4854359;28;20051;-63
2022/12/27 03:49:36;;;;;;;4.75;1.67;;;;;;;-0.93;89.71;101056.28;4815152;28;20046;-60
2022/12/27 03:52:42;;;;;;;2.78;1.58;;;;;;;-0.92;89.23;101055.50;4880023;28;20046;-60
2022/12/27 03:55:49;;;;;;;4.28;1.55;;;;;;;-0.97;88.66;101054.41;4896982;28;20084;-61
2022/12/27 03:58:34;;;;;;;4.65;1.45;;;;;;;-1.63;88.04;100960.94;4860940;28;20056;-58
2022/12/27 04:01:14;;;;;;;;;;;;;;;-1.25;88.43;101046.31;4861140;28;20050;-57
2022/12/27 04:37:22;;;;;;;2.75;1.20;;;;;;;-0.78;87.80;101057.75;4845778;28;20311;-59
2022/12/27 04:55:28;;;;;;;2.35;1.45;;;;;;;-1.81;95.75;101048.97;4826199;28;20070;-58
2022/12/27 04:58:11;;;;;;;4.43;1.50;;;;;;;-1.68;96.94;101076.03;4858374;28;20057;-60
2022/12/27 05:03:49;;;;;;;10.88;4.50;;;;;;;-1.63;97.23;101086.50;4852694;28;20050;-57
2022/12/27 05:06:22;;;;;;;7.55;3.05;;;;;;;-1.66;97.47;101084.66;4846044;28;20096;-60
2022/12/27 05:18:23;;;;;;;20.38;5.55;;;;;;;-1.80;96.90;101081.50;4874813;28;20107;-57
2022/12/27 05:21:08;;;;;;;5.53;2.00;;;;;;;-1.78;97.14;101092.66;4832308;28;20066;-57
2022/12/27 05:27:00;;;;;;;11.27;3.88;;;;;;;-1.75;96.56;101097.94;4789146;28;20077;-59
2022/12/27 05:29:40;;;;;;;9.00;2.70;;;;;;;-1.70;96.40;101092.13;4816661;28;20124;-58
2022/12/27 05:32:43;;;;;;;23.08;6.90;;;;;;;-1.67;96.08;101093.19;4840745;28;20063;-58
2022/12/27 05:36:03;;;;;;;21.58;5.82;;;;;;;-1.73;95.79;101098.00;4873189;28;20047;-58
2022/12/27 05:39:04;;;;;;;14.73;5.28;;;;;;;-2.14;96.07;101047.41;4867010;28;20174;-59
2022/12/27 05:45:11;;;;;;;68.22;17.75;;;;;;;-1.86;96.90;101106.81;4786245;29;20060;-59
2022/12/27 05:51:00;;;;;;;15.90;4.43;;;;;;;-2.02;98.73;101104.31;4822285;28;20060;-59
2022/12/27 05:53:34;;;;;;;42.58;12.73;;;;;;;-2.15;99.60;101107.97;4820096;28;20063;-61
2022/12/27 05:56:19;;;;;;;20.17;6.20;;;;;;;-2.21;99.85;101097.44;4820425;28;20046;-59
2022/12/27 05:59:10;;;;;;;24.25;6.93;;;;;;;-2.09;99.68;101125.31;4821315;28;20051;-60
2022/12/27 06:01:56;;;;;;;12.98;4.28;;;;;;;-2.13;100.00;101115.72;4814923;28;20059;-56
2022/12/27 06:05:11;;;;;;;43.15;13.15;;;;;;;-2.15;100.00;101132.69;4813069;28;20312;-59
2022/12/27 06:11:39;;;;;;;34.90;11.25;;;;;;;-2.20;100.00;101135.03;4816069;28;20050;-59
2022/12/27 06:14:50;;;;;;;7.72;1.98;;;;;;;-2.24;100.00;101136.56;4802738;28;20173;-58
2022/12/27 06:17:39;;;;;;;4.50;2.25;;;;;;;-2.24;100.00;101134.00;4788082;28;20127;-56
2022/12/27 06:20:56;;;;;;;7.10;3.28;;;;;;;-2.19;100.00;101147.03;4802739;28;20386;-59
2022/12/27 06:23:50;;;;;;;12.60;5.25;;;;;;;-2.21;99.19;101144.41;4815350;28;20038;-58
2022/12/27 06:33:08;;;;;;;4.47;1.20;;;;;;;-2.35;99.71;101150.50;4883628;28;20037;-61
2022/12/27 06:36:22;;;;;;;3.35;1.50;;;;;;;-2.38;100.00;101150.34;4858610;28;20105;-60
2022/12/27 06:39:24;;;;;;;3.10;1.67;;;;;;;-2.31;100.00;101151.56;4863244;28;20053;-60
2022/12/27 06:42:28;;;;;;;4.15;1.50;;;;;;;-2.31;100.00;101160.09;4829947;28;20091;-59
2022/12/27 06:51:37;;;;;;;3.35;1.30;;;;;;;-2.50;100.00;101165.09;4837743;28;20542;-61
2022/12/27 06:54:16;;;;;;;3.58;1.40;;;;;;;-2.54;100.00;101176.00;4835030;28;20100;-60
2022/12/27 06:57:09;;;;;;;5.18;1.30;;;;;;;-2.59;100.00;101169.75;4857646;28;20135;-60
2022/12/27 06:59:48;;;;;;;2.22;1.40;;;;;;;-2.54;100.00;101173.44;4849756;28;20075;-61
2022/12/27 07:02:36;;;;;;;3.47;1.50;;;;;;;-2.51;100.00;101179.56;4826702;28;20081;-59
2022/12/27 07:05:40;;;;;;;4.65;1.95;;;;;;;-2.52;100.00;101184.59;4827217;28;20110;-61
2022/12/27 07:08:55;;;;;;;4.43;1.80;;;;;;;-2.56;100.00;101175.03;4881939;28;20047;-59
2022/12/27 07:12:10;;;;;;;6.68;1.85;;;;;;;-2.56;100.00;101175.91;4858876;28;22235;-60
2022/12/27 07:15:05;;;;;;;6.05;2.30;;;;;;;-2.72;100.00;101153.78;4810318;28;20069;-61
2022/12/27 07:17:42;;;;;;;8.35;3.33;;;;;;;-2.62;100.00;101171.38;4845190;28;20050;-61
2022/12/27 07:20:50;;;;;;;15.77;5.53;;;;;;;-2.69;100.00;101163.28;4868086;28;20046;-61
2022/12/27 07:23:39;;;;;;;8.32;2.75;;;;;;;-2.69;100.00;101173.53;4792016;28;20042;-61
2022/12/27 07:26:39;;;;;;;5.47;1.88;;;;;;;-2.63;100.00;101169.59;4845664;28;20069;-60
2022/12/27 07:29:28;;;;;;;3.22;1.42;;;;;;;-2.55;100.00;101177.66;4844909;28;20045;-61
2022/12/27 07:32:14;;;;;;;4.55;1.83;;;;;;;-2.43;100.00;101167.16;4862454;28;20322;-62
2022/12/27 07:34:53;;;;;;;9.02;3.03;;;;;;;-2.40;100.00;101167.31;4831701;28;20110;-63
2022/12/27 07:37:39;;;;;;;6.10;2.15;;;;;;;-2.44;100.00;101178.22;4839769;28;20053;-62
2022/12/27 07:40:25;;;;;;;14.80;4.40;;;;;;;-2.46;100.00;101177.25;4849695;28;20375;-61
2022/12/27 07:43:06;;;;;;;7.32;2.40;;;;;;;-2.47;100.00;101185.72;4847498;28;20085;-58
2022/12/27 07:45:57;;;;;;;;;;;;;;;-2.46;100.00;101184.94;4825544;28;20050;-60
2022/12/27 07:48:42;;;;;;;6.88;2.33;;;;;;;-2.50;100.00;101175.31;4849729;28;19917;-59
2022/12/27 07:51:29;;;;;;;11.73;4.85;;;;;;;-2.45;100.00;101184.13;4855240;28;20056;-60
2022/12/27 07:56:55;;;;;;;8.68;3.10;;;;;;;-2.44;100.00;101189.31;4796957;28;20191;-59
2022/12/27 07:59:57;;;;;;;5.88;3.03;;;;;;;-2.45;100.00;101190.09;4862583;28;20074;-60
2022/12/27 08:05:51;;;;;;;3.90;1.60;;;;;;;-2.76;100.00;101126.28;4852380;28;20054;-60
2022/12/27 08:08:40;;;;;;;4.78;1.98;;;;;;;-2.38;100.00;101184.50;4829200;28;20091;-60
2022/12/27 08:11:13;;;;;;;4.45;1.75;;;;;;;-2.40;100.00;101177.56;4842532;28;20051;-60
2022/12/27 08:13:53;;;;;;;3.42;1.58;;;;;;;-2.38;100.00;101175.94;4858834;28;20062;-60
2022/12/27 08:19:47;;;;;;;6.70;2.83;;;;;;;-2.37;100.00;101162.38;4831611;28;20044;-58
2022/12/27 08:25:49;;;;;;;7.03;2.00;;;;;;;-2.15;100.00;101173.66;4777668;28;20050;-59
2022/12/27 08:28:40;;;;;;;5.68;1.75;;;;;;;-2.15;100.00;101161.72;4770957;28;20122;-58
2022/12/27 08:31:19;;;;;;;4.38;2.15;;;;;;;-2.06;100.00;101176.69;4826510;28;20215;-59
2022/12/27 08:34:06;;;;;;;8.27;4.25;;;;;;;-2.07;100.00;101177.47;4844155;28;20056;-59
2022/12/27 08:37:12;;;;;;;8.35;3.65;;;;;;;-2.08;100.00;101170.59;4828236;28;20054;-59
2022/12/27 08:40:00;;;;;;;4.57;2.60;;;;;;;-2.04;100.00;101177.66;4815641;28;20043;-58
2022/12/27 08:42:56;;;;;;;5.45;3.50;;;;;;;-2.03;100.00;101174.28;4803343;28;20243;-57
2022/12/27 08:45:45;;;;;;;4.45;2.97;;;;;;;-2.14;100.00;101170.31;4831337;28;20052;-59
2022/12/27 08:48:32;;;;;;;6.13;2.85;;;;;;;-2.20;100.00;101186.22;4853337;28;20067;-58
2022/12/27 08:51:09;;;;;;;4.70;2.65;;;;;;;-2.18;99.95;101184.63;4828946;28;20093;-59
2022/12/27 08:54:15;;;;;;;17.88;7.07;;;;;;;-2.23;99.78;101186.97;4827691;28;20149;-59
2022/12/27 08:56:53;;;;;;;13.63;5.03;;;;;;;-2.22;99.97;101188.72;4826646;28;20125;-58
2022/12/27 08:59:44;;;;;;;16.83;6.85;;;;;;;-2.17;99.84;101187.28;4795715;28;20046;-61
2022/12/27 09:02:25;;;;;;;18.35;7.10;;;;;;;-2.14;99.69;101188.25;4807881;28;20050;-60
2022/12/27 09:05:01;;;;;;;16.25;7.18;;;;;;;-2.10;99.45;101188.44;4829187;28;20050;-62
2022/12/27 09:07:54;;;;;;;23.23;9.45;;;;;;;-2.13;99.37;101182.31;4844821;28;20045;-60
2022/12/27 09:11:14;;;;;;;14.90;7.23;;;;;;;-2.17;99.03;101187.28;4852220;28;20203;-64
2022/12/27 09:13:57;;;;;;;10.52;4.30;;;;;;;-2.13;99.07;101207.91;4865067;28;20290;-63
2022/12/27 09:16:33;;;;;;;13.65;4.72;;;;;;;-2.19;98.86;101173.53;4817431;28;20055;-62
2022/12/27 09:19:24;;;;;;;5.25;2.75;;;;;;;-2.09;98.84;101182.53;4862748;28;20057;-63
2022/12/27 09:22:28;;;;;;;2.90;1.73;;;;;;;-2.10;98.69;101183.31;4859680;28;20050;-61
2022/12/27 09:25:05;;;;;;;6.53;2.28;;;;;;;-2.12;98.29;101189.16;4832512;28;20082;-62
2022/12/27 09:27:53;;;;;;;3.10;2.30;;;;;;;-2.19;98.32;101188.00;4875029;28;20077;-61
2022/12/27 09:30:57;;;;;;;5.95;2.50;;;;;;;-2.18;98.28;101179.50;4818396;28;20725;-62
2022/12/27 09:33:47;;;;;;;8.73;2.40;;;;;;;-3.04;97.86;101058.38;4833891;28;20054;-60
2022/12/27 09:36:28;;;;;;;5.32;2.40;;;;;;;-2.50;97.94;101159.97;4809582;28;20290;-59
2022/12/27 09:39:17;;;;;;;12.13;6.05;;;;;;;-2.35;98.42;101188.91;4859098;28;20054;-59
2022/12/27 09:42:44;;;;;;;22.77;9.75;;;;;;;-2.46;98.25;101167.03;4842561;28;20048;-58
2022/12/27 09:46:05;;;;;;;27.58;10.98;;;;;;;-2.43;98.39;101182.53;4851940;28;20116;-63
2022/12/27 09:49:17;;;;;;;28.05;11.25;;;;;;;-2.43;98.12;101175.72;4803544;28;20046;-60
2022/12/27 09:52:15;;;;;;;26.52;10.93;;;;;;;-2.45;98.45;101179.00;4862095;28;20103;-60
2022/12/27 09:55:13;;;;;;;22.10;8.43;;;;;;;-2.50;98.26;101181.31;4847344;28;20060;-63
2022/12/27 09:57:57;;;;;;;21.00;7.72;;;;;;;-2.52;98.17;101176.94;4843303;28;20042;-61
2022/12/27 10:00:48;;;;;;;16.10;7.13;;;;;;;-2.52;98.63;101166.69;4848482;28;20070;-60
2022/12/27 10:03:41;;;;;;;;;;;;;;;-2.49;98.87;101170.31;4848406;28;20046;-60
2022/12/27 10:06:39;;;;;;;13.32;6.95;;;;;;;-2.47;98.89;101170.34;4830547;28;19928;-61
2022/12/27 10:09:36;;;;;;;22.58;8.90;;;;;;;-2.44;99.22;101167.97;4821903;28;20713;-60
2022/12/27 10:12:45;;;;;;;47.83;18.08;;;;;;;-3.23;98.54;101045.44;4867702;28;20080;-61
2022/12/27 10:15:35;;;;;;;24.80;11.75;;;;;;;-2.57;98.68;101173.25;4854294;28;20086;-61
2022/12/27 10:28:39;;;;;;;109.95;39.17;;;;;;;-2.52;99.15;101167.59;4984005;27;20261;-63
2022/12/27 10:31:42;;;;;;;99.93;30.98;;;;;;;-2.56;99.30;101159.69;4938279;27;20051;-61
2022/12/27 10:34:27;;;;;;;94.35;29.45;;;;;;;-2.53;99.20;101167.50;4959590;27;20086;-58
2022/12/27 10:40:15;;;;;;;160.43;38.30;;;;;;;-2.51;99.39;101163.34;4938453;27;20065;-64
2022/12/27 10:42:58;;;;;;;138.02;41.72;;;;;;;-2.53;99.27;101160.69;4982697;27;20035;-60
2022/12/27 10:52:50;;;;;;;59.83;25.83;;;;;;;-2.58;99.40;101166.41;4961710;27;20047;-61
2022/12/27 10:55:41;;;;;;;20.02;10.52;;;;;;;-2.68;99.20;101155.69;4915029;27;20051;-61
2022/12/27 10:58:41;;;;;;;14.70;6.57;;;;;;;-2.68;99.19;101160.78;4996624;27;20047;-62
2022/12/27 11:01:41;;;;;;;92.30;38.58;;;;;;;-2.71;99.50;101160.66;4947182;27;20042;-63
2022/12/27 11:04:38;;;;;;;86.57;41.00;;;;;;;-2.70;99.59;101156.41;4906554;28;20068;-63
2022/12/27 11:10:49;;;;;;;54.88;22.65;;;;;;;-2.76;99.59;101151.00;4941615;27;20040;-60
2022/12/27 11:13:34;;;;;;;34.45;11.57;;;;;;;-2.74;99.85;101152.81;4962094;27;20151;-62
2022/12/27 11:16:27;;;;;;;22.85;9.13;;;;;;;-2.68;100.00;101149.69;4951259;27;20054;-62
2022/12/27 11:19:11;;;;;;;23.95;9.43;;;;;;;-2.65;99.99;101153.28;4958898;27;20047;-61
2022/12/27 11:22:08;;;;;;;21.60;9.77;;;;;;;-2.62;100.00;101143.22;4978632;27;20058;-62
2022/12/27 11:24:54;;;;;;;13.07;5.88;;;;;;;-2.70;99.98;101124.00;4964019;27;20044;-60
2022/12/27 11:27:53;;;;;;;10.75;4.35;;;;;;;-2.51;99.95;101148.88;4946528;27;20047;-61
2022/12/27 11:30:55;;;;;;;12.85;5.22;;;;;;;-2.47;100.00;101150.78;4971697;27;20065;-66
2022/12/27 11:33:39;;;;;;;12.60;5.30;;;;;;;-2.69;99.86;101091.66;4975762;27;20137;-61
2022/12/27 11:36:17;;;;;;;18.90;8.05;;;;;;;-2.35;99.95;101139.38;4978245;27;20313;-62
2022/12/27 11:39:08;;;;;;;31.15;13.02;;;;;;;-2.30;99.78;101153.28;4959089;27;20075;-62
2022/12/27 11:42:06;;;;;;;32.38;13.02;;;;;;;-2.24;99.86;101143.38;4955532;27;20056;-59
2022/12/27 11:45:16;;;;;;;27.95;11.65;;;;;;;-2.24;99.50;101146.81;4960106;27;20211;-61
2022/12/27 11:51:41;;;;;;;31.17;13.75;;;;;;;-2.19;99.09;101136.81;4888361;28;20165;-61
2022/12/27 11:54:46;;;;;;;36.42;15.32;;;;;;;-2.17;98.59;101141.19;4914386;28;20079;-62
2022/12/27 12:00:57;;;;;;;30.50;13.20;;;;;;;-2.23;98.67;101114.41;4900196;28;20366;-61
2022/12/27 12:04:41;;;;;;;23.70;10.77;;;;;;;-1.92;98.44;101129.56;4914963;28;20178;-61
2022/12/27 12:07:33;;;;;;;18.25;8.18;;;;;;;-1.96;97.80;101131.09;4961889;27;20048;-62
2022/12/27 12:10:30;;;;;;;22.35;7.97;;;;;;;-2.10;97.21;101116.75;4944287;27;20450;-61
2022/12/27 12:13:37;;;;;;;18.50;8.73;;;;;;;-2.07;96.89;101131.38;4917303;28;20075;-62
2022/12/27 12:16:46;;;;;;;19.83;7.88;;;;;;;-2.11;96.55;101129.50;4869520;28;20054;-60
2022/12/27 12:20:18;;;;;;;17.85;7.85;;;;;;;-2.13;96.44;101120.84;4880528;28;20076;-61
2022/12/27 12:23:19;;;;;;;22.73;8.20;;;;;;;-2.19;96.38;101124.88;4860834;28;20047;-61
2022/12/27 12:26:43;;;;;;;21.90;10.18;;;;;;;-2.19;95.92;101127.44;4872754;28;20046;-60
2022/12/27 12:29:58;;;;;;;49.40;18.83;;;;;;;-2.22;96.04;101122.16;4861904;28;20525;-60
2022/12/27 12:33:09;;;;;;;55.28;21.60;;;;;;;-2.27;95.70;101113.38;4868597;28;20049;-61
2022/12/27 12:36:18;;;;;;;46.85;15.73;;;;;;;-2.32;96.04;101114.84;4865415;28;20126;-62
2022/12/27 12:38:59;;;;;;;48.25;17.05;;;;;;;-2.34;95.93;101119.00;4884275;28;20047;-61
2022/12/27 12:42:14;;;;;;;47.72;16.05;;;;;;;-2.33;96.00;101107.94;4851392;28;20552;-61
2022/12/27 12:45:31;;;;;;;55.83;18.00;;;;;;;-2.35;95.77;101109.53;4810581;28;20073;-61
2022/12/27 12:48:57;;;;;;;18.27;6.00;;;;;;;-2.44;95.51;101104.88;4857037;28;20056;-62
2022/12/27 12:55:39;;;;;;;16.95;6.25;;;;;;;-2.56;96.24;101113.63;4795995;28;20321;-61
2022/12/27 12:58:58;;;;;;;26.50;9.43;;;;;;;-2.44;96.42;101111.69;4789692;28;20057;-61
2022/12/27 13:01:47;;;;;;;140.32;54.55;;;;;;;-2.36;96.51;101112.06;4770488;28;20233;-61
2022/12/27 13:08:13;;;;;;;38.67;17.05;;;;;;;-2.32;96.17;101104.59;4815523;28;20047;-61
2022/12/27 13:11:25;;;;;;;58.05;26.23;;;;;;;-2.30;95.46;101112.34;4811186;28;20043;-61
2022/12/27 13:14:41;;;;;;;30.40;13.60;;;;;;;-2.37;95.01;101113.75;4816501;28;20047;-60
2022/12/27 13:17:38;;;;;;;28.75;12.25;;;;;;;-2.42;95.01;101104.94;4815828;28;20046;-58
2022/12/27 13:20:40;;;;;;;34.17;13.63;;;;;;;-2.46;95.06;101108.16;4813966;28;20514;-59
2022/12/27 13:23:43;;;;;;;16.20;7.80;;;;;;;-3.12;95.25;100993.22;4818912;28;20190;-62
2022/12/27 13:26:31;;;;;;;24.33;10.20;;;;;;;-2.38;95.25;101114.53;4809437;28;20168;-61
2022/12/27 13:29:36;;;;;;;;;;;;;;;-2.40;95.07;101105.88;4906593;28;20045;-59
2022/12/27 13:32:27;;;;;;;31.75;12.15;;;;;;;-3.05;94.63;101013.13;4919817;28;20141;-60
2022/12/27 13:35:23;;;;;;;24.80;10.43;;;;;;;-2.58;94.57;101104.97;4861266;28;20050;-61
2022/12/27 13:42:40;;;;;;;98.13;37.95;;;;;;;-2.65;95.15;101089.31;4920513;28;20159;-62
2022/12/27 13:49:45;;;;;;;32.17;13.88;;;;;;;-2.53;95.09;101089.06;4912435;28;20895;-59
2022/12/27 13:52:48;;;;;;;23.15;9.88;;;;;;;-3.04;95.37;100994.47;4948646;28;20063;-61
2022/12/27 13:59:45;;;;;;;47.03;18.17;;;;;;;-2.46;94.98;101095.34;4944170;28;20046;-62
2022/12/27 14:03:23;;;;;;;90.63;35.00;;;;;;;-2.48;94.38;101091.84;4848282;28;20130;-62
2022/12/27 14:06:39;;;;;;;112.45;42.67;;;;;;;-2.46;94.21;101090.25;4822135;28;20101;-63
2022/12/27 14:10:03;;;;;;;24.27;9.95;;;;;;;-2.45;94.45;101099.66;4823062;28;20054;-60
2022/12/27 14:13:13;;;;;;;49.25;23.33;;;;;;;-2.38;94.48;101094.06;4833537;28;20046;-62
2022/12/27 14:16:35;;;;;;;45.42;17.70;;;;;;;-2.35;94.66;101094.19;4797593;28;20054;-63
2022/12/27 14:20:12;;;;;;;25.85;12.15;;;;;;;-2.42;94.71;101071.66;4797696;28;20074;-63
2022/12/27 14:23:44;;;;;;;30.73;13.48;;;;;;;-2.31;94.77;101090.13;4744007;29;20053;-62
2022/12/27 14:27:09;;;;;;;41.67;18.08;;;;;;;-2.31;94.88;101096.09;4765404;29;20044;-61
2022/12/27 14:30:41;;;;;;;51.88;22.73;;;;;;;-2.25;95.71;101093.84;4795982;29;20111;-60
2022/12/27 14:33:59;;;;;;;54.60;25.23;;;;;;;-2.20;95.69;101089.84;4795630;29;20118;-61
2022/12/27 14:37:06;;;;;;;56.78;23.50;;;;;;;-2.24;95.73;101075.13;4764114;29;20052;-62
2022/12/27 14:43:30;;;;;;;53.28;24.17;;;;;;;-2.01;96.29;101091.59;4841798;28;20077;-62
2022/12/27 14:46:29;;;;;;;;;;;;;;;-1.97;96.26;101087.50;4841812;28;20041;-60
2022/12/27 14:49:51;;;;;;;55.90;22.45;;;;;;;-2.42;96.50;101005.09;4899188;28;19937;-63
2022/12/27 14:53:01;;;;;;;50.67;22.13;;;;;;;-1.93;96.25;101079.13;4880683;28;20350;-63
2022/12/27 14:56:09;;;;;;;51.35;23.10;;;;;;;-2.04;95.79;101055.59;4795135;29;20046;-60
2022/12/27 14:59:29;;;;;;;45.30;20.70;;;;;;;-2.00;95.67;101071.97;4788991;28;20046;-62
2022/12/27 15:02:29;;;;;;;41.00;20.60;;;;;;;-2.13;95.38;101049.16;4809693;28;20062;-62
2022/12/27 15:05:40;;;;;;;32.17;14.13;;;;;;;-2.04;95.18;101064.97;4857521;28;20073;-62
2022/12/27 15:09:06;;;;;;;29.52;12.95;;;;;;;-2.01;94.87;101054.84;4836560;28;20053;-62
2022/12/27 15:12:23;;;;;;;26.73;13.27;;;;;;;-2.04;94.32;101049.59;4818896;28;20340;-63
2022/12/27 15:15:23;;;;;;;21.27;10.13;;;;;;;-2.10;94.01;101054.41;4812222;28;20047;-61
2022/12/27 15:18:23;;;;;;;20.30;10.52;;;;;;;-2.11;93.55;101037.31;4795323;29;20055;-62
2022/12/27 15:21:54;;;;;;;22.08;10.43;;;;;;;-2.12;93.69;101036.44;4797258;28;20977;-61
2022/12/27 15:25:05;;;;;;;23.52;10.93;;;;;;;-2.05;93.56;101040.13;4780215;28;20245;-63
2022/12/27 15:28:16;;;;;;;18.95;10.20;;;;;;;-2.02;93.23;101037.72;4781670;29;20071;-62
2022/12/27 15:31:10;;;;;;;18.60;10.32;;;;;;;-2.13;93.38;101015.88;4828879;28;20056;-60
2022/12/27 15:33:58;;;;;;;25.42;11.98;;;;;;;-2.04;92.71;101034.22;4918496;28;20060;-62
2022/12/27 15:36:51;;;;;;;24.10;12.18;;;;;;;-2.07;92.50;101028.94;4854028;28;20093;-61
2022/12/27 15:39:54;;;;;;;27.77;13.43;;;;;;;-2.09;92.20;101033.13;4877477;28;20045;-62
2022/12/27 15:42:50;;;;;;;25.13;12.77;;;;;;;-2.12;92.15;101035.53;4898785;28;20047;-63
2022/12/27 15:45:53;;;;;;;28.70;13.43;;;;;;;-2.14;91.90;101032.06;4860455;28;20037;-61
2022/12/27 15:49:05;;;;;;;29.65;14.85;;;;;;;-2.20;91.69;101028.41;4928324;28;20412;-62
2022/12/27 15:51:58;;;;;;;33.45;15.85;;;;;;;-2.20;92.39;101018.16;4920079;28;20665;-62
2022/12/27 15:55:11;;;;;;;37.22;17.70;;;;;;;-2.22;92.36;101022.31;4938083;28;20067;-63
2022/12/27 15:58:04;;;;;;;35.70;15.50;;;;;;;-2.30;92.31;101015.94;4947563;28;20107;-60
2022/12/27 16:01:00;;;;;;;33.35;15.43;;;;;;;-2.31;92.19;101016.75;4930112;28;20247;-61
2022/12/27 16:06:57;;;;;;;35.97;16.85;;;;;;;-2.36;91.99;101020.78;4929556;28;20041;-60
2022/12/27 16:09:44;;;;;;;35.78;17.85;;;;;;;-2.51;92.38;100999.56;4958797;28;20060;-62
2022/12/27 16:12:44;;;;;;;29.58;13.32;;;;;;;-2.37;92.08;101024.16;4947519;28;20057;-62
2022/12/27 16:15:51;;;;;;;28.92;12.57;;;;;;;-2.37;92.79;101021.59;4883009;28;20037;-64
2022/12/27 16:19:05;;;;;;;25.92;12.13;;;;;;;-2.36;92.48;101025.03;4935963;28;20066;-62
2022/12/27 16:21:46;;;;;;;25.30;11.25;;;;;;;-2.42;92.67;101025.59;4912453;28;20049;-61
2022/12/27 16:24:36;;;;;;;23.27;11.25;;;;;;;-2.73;92.79;100972.94;4939041;28;20400;-63
2022/12/27 16:27:29;;;;;;;22.90;10.85;;;;;;;-2.47;93.15;101029.59;4930338;28;20044;-61
2022/12/27 16:30:14;;;;;;;26.27;11.20;;;;;;;-2.70;93.30;100975.63;4923342;28;20079;-63
2022/12/27 16:32:53;;;;;;;21.77;10.65;;;;;;;-2.99;93.28;100929.91;4947980;28;20085;-62
2022/12/27 16:35:32;;;;;;;24.65;12.57;;;;;;;-2.38;93.07;101030.94;4852420;28;20059;-62
2022/12/27 16:38:39;;;;;;;28.60;12.48;;;;;;;-2.36;92.98;101030.16;4938628;28;20040;-62
2022/12/27 16:42:13;;;;;;;26.40;11.93;;;;;;;-2.41;92.54;101027.34;4905013;28;20153;-61
2022/12/27 16:48:08;;;;;;;23.50;10.57;;;;;;;-2.35;92.70;101027.63;4941701;28;20043;-62
2022/12/27 16:51:20;;;;;;;27.25;14.23;;;;;;;-2.34;93.01;101031.97;4909586;28;20040;-63
2022/12/27 16:54:23;;;;;;;27.52;11.60;;;;;;;-2.38;92.73;101027.50;4926295;28;20032;-61
2022/12/27 16:57:41;;;;;;;22.10;10.50;;;;;;;-2.37;92.66;101026.72;4939200;28;20091;-62
2022/12/27 17:00:45;;;;;;;25.75;12.15;;;;;;;-2.33;93.06;101020.91;4933464;28;20062;-60
2022/12/27 17:03:45;;;;;;;28.58;13.20;;;;;;;-2.32;93.29;101016.66;4937497;28;20070;-61
2022/12/27 17:07:01;;;;;;;28.00;11.25;;;;;;;-2.33;93.08;101026.03;4942419;28;20040;-60
2022/12/27 17:09:55;;;;;;;24.45;11.23;;;;;;;-2.31;93.32;101024.44;4935006;28;20048;-63